Time;durP1;ratioP1;P1;durP2;ratioP2;P2;SDS_P1;SDS_P2;PMS_P1;PMS_P2;Temp;Humidity;BMP_temperature;BMP_pressure;BME280_temperature;BME280_humidity;BME280_pressure;Samples;Min_cycle;Max_cycle;Signal;HPM_P1;HPM_P2
2023/06/01 00:01:41;;;;;;;2.30;2.00;;;16.90;54.30;;;;;;5166738;28;20271;-43
2023/06/01 00:04:13;;;;;;;1.90;1.80;;;16.90;54.60;;;;;;5182839;28;20580;-44
2023/06/01 00:06:43;;;;;;;3.07;2.30;;;16.80;54.90;;;;;;5179486;28;20431;-44
2023/06/01 00:09:14;;;;;;;3.33;2.20;;;16.70;55.00;;;;;;5182834;28;20439;-44
2023/06/01 00:11:45;;;;;;;3.30;1.77;;;16.70;55.40;;;;;;5182971;28;20596;-45
2023/06/01 00:14:15;;;;;;;1.97;1.87;;;16.70;55.60;;;;;;5165746;28;20214;-46
2023/06/01 00:16:46;;;;;;;1.53;1.53;;;16.60;55.90;;;;;;5165811;28;20188;-45
2023/06/01 00:19:17;;;;;;;2.50;2.30;;;16.60;56.30;;;;;;5181132;28;20180;-44
2023/06/01 00:21:48;;;;;;;2.73;2.27;;;16.50;56.70;;;;;;5182697;28;20176;-45
2023/06/01 00:24:18;;;;;;;2.10;1.90;;;16.50;57.00;;;;;;5164274;28;20453;-44
2023/06/01 00:26:49;;;;;;;3.80;1.83;;;16.50;57.30;;;;;;5163683;28;20201;-44
2023/06/01 00:29:20;;;;;;;7.83;1.63;;;16.40;57.70;;;;;;5167707;28;20188;-45
2023/06/01 00:31:51;;;;;;;2.13;1.40;;;16.40;58.10;;;;;;5191871;28;20180;-45
2023/06/01 00:34:21;;;;;;;4.20;2.07;;;16.40;58.60;;;;;;5190522;28;20691;-45
2023/06/01 00:36:52;;;;;;;7.20;2.00;;;16.30;59.30;;;;;;5189885;28;21433;-44
2023/06/01 00:39:23;;;;;;;2.60;2.27;;;16.30;59.80;;;;;;5187590;28;20173;-45
2023/06/01 00:41:53;;;;;;;6.17;1.93;;;16.20;60.60;;;;;;5167461;28;20180;-45
2023/06/01 00:44:24;;;;;;;1.60;1.60;;;16.20;61.60;;;;;;5166495;28;20219;-44
2023/06/01 00:46:55;;;;;;;3.33;1.83;;;16.20;62.60;;;;;;5184864;28;20180;-45
2023/06/01 00:49:26;;;;;;;2.90;1.70;;;16.10;63.80;;;;;;5169101;28;20210;-45
2023/06/01 00:51:57;;;;;;;3.07;1.90;;;16.10;65.10;;;;;;5184757;28;20208;-44
2023/06/01 00:54:28;;;;;;;3.87;2.00;;;16.00;66.60;;;;;;5181930;28;21030;-45
2023/06/01 00:57:00;;;;;;;2.33;2.10;;;16.00;68.30;;;;;;5182236;28;20211;-44
2023/06/01 00:59:30;;;;;;;2.37;2.23;;;16.00;70.30;;;;;;5186926;28;20947;-44
2023/06/01 01:02:04;;;;;;;2.23;2.13;;;15.90;72.40;;;;;;5185029;28;20439;-44
2023/06/01 01:04:35;;;;;;;1.70;1.60;;;15.90;75.00;;;;;;5183410;28;20203;-45
2023/06/01 01:07:38;;;;;;;1.87;1.50;;;15.90;77.20;;;;;;5169210;28;20880;-44
2023/06/01 01:10:20;;;;;;;3.40;2.40;;;15.90;79.00;;;;;;5188678;28;20431;-44
2023/06/01 01:13:11;;;;;;;7.67;1.97;;;15.80;83.10;;;;;;5186687;28;20465;-45
2023/06/01 01:16:07;;;;;;;7.70;2.20;;;15.80;85.40;;;;;;5172121;28;20447;-44
2023/06/01 01:18:46;;;;;;;2.73;2.27;;;15.80;88.60;;;;;;5186577;28;20439;-44
2023/06/01 01:21:28;;;;;;;2.17;2.07;;;15.70;90.40;;;;;;5188245;28;20443;-44
2023/06/01 01:24:18;;;;;;;2.87;1.93;;;15.70;91.50;;;;;;5186454;28;20485;-44
2023/06/01 01:27:14;;;;;;;4.80;2.00;;;15.70;92.50;;;;;;5185618;28;21529;-43
2023/06/01 01:29:46;;;;;;;5.90;2.40;;;15.60;93.70;;;;;;5185644;28;20431;-44
2023/06/01 01:32:17;;;;;;;2.33;2.20;;;15.60;95.30;;;;;;5190991;28;20955;-45
2023/06/01 01:34:49;;;;;;;3.07;2.23;;;15.50;96.10;;;;;;5187042;28;20455;-45
2023/06/01 01:37:22;;;;;;;2.57;2.23;;;15.50;97.20;;;;;;5190785;28;20310;-44
2023/06/01 01:39:52;;;;;;;4.17;2.00;;;15.50;98.00;;;;;;5188366;28;20444;-46
2023/06/01 01:42:23;;;;;;;2.13;1.93;;;15.40;98.70;;;;;;5190061;28;20865;-48
2023/06/01 01:44:54;;;;;;;6.00;2.03;;;15.40;99.40;;;;;;5188192;28;20216;-45
2023/06/01 01:47:34;;;;;;;3.73;2.27;;;15.40;99.90;;;;;;5185741;28;20655;-45
2023/06/01 01:50:10;;;;;;;2.40;2.27;;;15.30;99.90;;;;;;5186042;28;20450;-44
2023/06/01 01:52:42;;;;;;;4.53;1.87;;;15.30;99.90;;;;;;5187726;28;20829;-45
2023/06/01 01:55:15;;;;;;;4.57;2.37;;;15.20;99.90;;;;;;5183489;28;20459;-45
2023/06/01 01:57:47;;;;;;;2.60;2.00;;;15.20;99.90;;;;;;5183596;28;20442;-44
2023/06/01 02:00:19;;;;;;;2.33;2.13;;;15.10;99.90;;;;;;5183628;28;20431;-45
2023/06/01 02:02:49;;;;;;;3.07;1.93;;;15.10;99.90;;;;;;5187163;28;20443;-45
2023/06/01 02:05:20;;;;;;;4.90;2.50;;;15.00;99.90;;;;;;5187122;28;20965;-44
2023/06/01 02:07:50;;;;;;;5.80;2.13;;;15.00;99.90;;;;;;5183880;28;20192;-44
2023/06/01 02:10:21;;;;;;;7.63;2.77;;;14.90;99.90;;;;;;5181925;28;20276;-45
2023/06/01 02:12:52;;;;;;;2.10;1.87;;;14.90;99.90;;;;;;5181753;28;20216;-44
2023/06/01 02:15:22;;;;;;;2.73;2.27;;;14.80;99.90;;;;;;5181299;28;20275;-44
2023/06/01 02:17:53;;;;;;;4.30;2.33;;;14.80;99.90;;;;;;5179962;28;20653;-44
2023/06/01 02:20:24;;;;;;;2.63;2.43;;;14.70;99.90;;;;;;5184584;28;20216;-45
2023/06/01 02:22:55;;;;;;;3.00;2.43;;;14.70;99.90;;;;;;5163466;28;20187;-44
2023/06/01 02:25:25;;;;;;;2.73;2.10;;;14.60;99.90;;;;;;5149220;28;20997;-44
2023/06/01 02:27:56;;;;;;;3.60;2.60;;;14.60;99.90;;;;;;5184118;28;20180;-44
2023/06/01 02:30:26;;;;;;;2.07;2.07;;;14.50;99.90;;;;;;5183106;28;20231;-44
2023/06/01 02:32:58;;;;;;;2.57;2.33;;;14.50;99.90;;;;;;5183207;28;20350;-44
2023/06/01 02:35:29;;;;;;;2.40;2.20;;;14.40;99.90;;;;;;5185086;28;20227;-44
2023/06/01 02:37:59;;;;;;;8.70;2.53;;;14.40;99.90;;;;;;5186649;28;20439;-46
2023/06/01 02:40:30;;;;;;;2.57;2.37;;;14.30;99.90;;;;;;5165433;28;20199;-44
2023/06/01 02:43:01;;;;;;;5.30;2.40;;;14.30;99.90;;;;;;5184601;28;20216;-45
2023/06/01 02:45:31;;;;;;;4.60;2.70;;;14.20;99.90;;;;;;5186722;28;20193;-45
2023/06/01 02:48:02;;;;;;;4.00;2.17;;;14.20;99.90;;;;;;5187193;28;20176;-45
2023/06/01 02:50:33;;;;;;;4.37;2.90;;;14.10;99.90;;;;;;5186838;28;20184;-44
2023/06/01 02:53:04;;;;;;;4.77;3.00;;;14.20;99.90;;;;;;5186391;28;20534;-45
2023/06/01 02:55:35;;;;;;;2.73;2.60;;;14.10;99.90;;;;;;5182473;28;20180;-44
2023/06/01 02:58:08;;;;;;;7.90;2.27;;;14.10;99.90;;;;;;5187924;28;20439;-44
2023/06/01 03:00:38;;;;;;;3.07;2.10;;;14.00;99.90;;;;;;5161249;28;20168;-44
2023/06/01 03:03:09;;;;;;;4.27;2.63;;;14.00;99.90;;;;;;5147447;28;20993;-44
2023/06/01 03:05:42;;;;;;;9.63;4.27;;;14.00;99.90;;;;;;5185934;28;20258;-44
2023/06/01 03:08:13;;;;;;;3.93;3.63;;;13.90;99.90;;;;;;5180433;28;20443;-46
2023/06/01 03:10:44;;;;;;;5.50;2.50;;;13.90;99.90;;;;;;5162712;28;20789;-44
2023/06/01 03:13:15;;;;;;;8.90;3.60;;;13.90;99.90;;;;;;5181680;28;20219;-45
2023/06/01 03:15:46;;;;;;;3.73;3.10;;;13.80;99.90;;;;;;5168473;28;20443;-44
2023/06/01 03:18:16;;;;;;;3.60;3.20;;;13.70;99.90;;;;;;5162657;28;20292;-44
2023/06/01 03:20:48;;;;;;;11.27;3.13;;;13.70;99.90;;;;;;5180372;28;20271;-44
2023/06/01 03:23:19;;;;;;;3.57;3.10;;;13.60;99.90;;;;;;5180807;28;20216;-45
2023/06/01 03:25:50;;;;;;;4.10;3.67;;;13.70;99.90;;;;;;5166359;28;20458;-44
2023/06/01 03:28:20;;;;;;;7.50;3.93;;;13.70;99.90;;;;;;5184539;28;20195;-44
2023/06/01 03:30:51;;;;;;;7.80;3.67;;;13.60;99.90;;;;;;5167295;28;20215;-46
2023/06/01 03:33:21;;;;;;;7.00;3.40;;;13.60;99.90;;;;;;5183258;28;20650;-44
2023/06/01 03:35:52;;;;;;;4.40;3.07;;;13.50;99.90;;;;;;5181910;28;20181;-44
2023/06/01 03:38:23;;;;;;;3.90;3.00;;;13.50;99.90;;;;;;5183448;28;20633;-43
2023/06/01 03:40:53;;;;;;;7.43;3.70;;;13.40;99.90;;;;;;5162910;28;20200;-45
2023/06/01 03:43:24;;;;;;;8.40;4.93;;;13.40;99.90;;;;;;5162397;28;20222;-45
2023/06/01 03:45:56;;;;;;;5.63;3.73;;;13.40;99.90;;;;;;5181418;28;20191;-44
2023/06/01 03:48:27;;;;;;;4.27;3.47;;;13.40;99.90;;;;;;5184624;28;20188;-45
2023/06/01 03:50:57;;;;;;;8.33;4.60;;;13.40;99.90;;;;;;5147676;28;20932;-45
2023/06/01 03:53:31;;;;;;;8.70;3.70;;;13.40;99.90;;;;;;5166111;28;20211;-44
2023/06/01 03:56:02;;;;;;;6.60;4.37;;;13.40;99.90;;;;;;5165807;28;20184;-44
2023/06/01 03:58:33;;;;;;;6.37;4.80;;;13.40;99.90;;;;;;5169816;28;20430;-45
2023/06/01 04:01:05;;;;;;;4.23;3.83;;;13.40;99.90;;;;;;5184738;28;20412;-44
2023/06/01 04:03:36;;;;;;;9.80;5.43;;;13.30;99.90;;;;;;5183589;28;20720;-44
2023/06/01 04:06:11;;;;;;;5.20;4.43;;;13.30;99.90;;;;;;5181140;28;20439;-45
2023/06/01 04:08:49;;;;;;;9.90;4.80;;;13.30;99.90;;;;;;5183037;28;20441;-44
2023/06/01 04:11:20;;;;;;;10.93;5.50;;;13.30;99.90;;;;;;5179314;28;20447;-45
2023/06/01 04:13:51;;;;;;;5.83;4.70;;;13.40;99.90;;;;;;5181511;28;20467;-44
2023/06/01 04:16:21;;;;;;;5.93;4.73;;;13.40;99.90;;;;;;5149268;28;20451;-43
2023/06/01 04:18:52;;;;;;;17.57;6.33;;;13.40;99.90;;;;;;5166649;28;20181;-44
2023/06/01 04:21:23;;;;;;;12.90;5.33;;;13.40;99.90;;;;;;5182199;28;20169;-44
2023/06/01 04:23:54;;;;;;;6.13;5.43;;;13.50;99.90;;;;;;5184646;28;20462;-44
2023/06/01 04:26:27;;;;;;;14.33;6.07;;;13.70;99.90;;;;;;5179731;28;20188;-45
2023/06/01 04:28:58;;;;;;;9.13;5.20;;;13.90;99.90;;;;;;5181479;28;20208;-44
2023/06/01 04:31:32;;;;;;;12.87;5.50;;;14.10;99.90;;;;;;5165613;28;20486;-45
2023/06/01 04:34:03;;;;;;;9.30;5.93;;;14.40;99.90;;;;;;5186795;28;20987;-45
2023/06/01 04:36:39;;;;;;;14.70;7.20;;;14.50;99.90;;;;;;5175674;28;20513;-44
2023/06/01 04:39:09;;;;;;;18.33;7.50;;;14.20;99.90;;;;;;5178715;28;20492;-44
2023/06/01 04:41:40;;;;;;;16.33;7.43;;;14.10;99.90;;;;;;5173447;28;20466;-44
2023/06/01 04:44:12;;;;;;;14.03;7.43;;;14.00;99.90;;;;;;5161687;28;20262;-44
2023/06/01 04:46:44;;;;;;;13.80;7.43;;;13.80;99.90;;;;;;5161247;28;20184;-44
2023/06/01 04:49:15;;;;;;;9.70;7.23;;;13.70;99.90;;;;;;5177726;28;20540;-44
2023/06/01 04:51:46;;;;;;;16.10;8.77;;;13.60;99.90;;;;;;5183439;28;20450;-45
2023/06/01 04:54:18;;;;;;;11.23;7.53;;;13.40;99.90;;;;;;5182401;28;20455;-44
2023/06/01 04:56:49;;;;;;;21.90;7.73;;;13.20;99.90;;;;;;5184166;28;20379;-45
2023/06/01 04:59:21;;;;;;;15.30;8.00;;;13.10;99.90;;;;;;5165356;28;20458;-43
2023/06/01 05:01:51;;;;;;;12.77;6.90;;;13.00;99.90;;;;;;5184991;28;20188;-45
2023/06/01 05:04:22;;;;;;;22.50;7.57;;;13.20;99.90;;;;;;5178875;28;20540;-44
2023/06/01 05:06:52;;;;;;;21.17;7.73;;;13.20;99.90;;;;;;5165068;28;20192;-45
2023/06/01 05:09:23;;;;;;;16.80;7.40;;;13.10;99.90;;;;;;5182249;28;20180;-45
2023/06/01 05:11:53;;;;;;;9.43;7.17;;;13.20;99.90;;;;;;5176991;28;20272;-45
2023/06/01 05:14:24;;;;;;;14.90;6.87;;;13.20;99.90;;;;;;5163312;28;20229;-44
2023/06/01 05:16:55;;;;;;;11.20;7.43;;;13.10;99.90;;;;;;5184001;28;20180;-44
2023/06/01 05:19:25;;;;;;;17.20;8.00;;;13.00;99.90;;;;;;5184305;28;20172;-43
2023/06/01 05:21:56;;;;;;;21.00;9.07;;;13.00;99.90;;;;;;5184452;28;20179;-44
2023/06/01 05:24:27;;;;;;;14.43;8.30;;;13.00;99.90;;;;;;5180709;28;20200;-45
2023/06/01 05:26:58;;;;;;;14.77;8.57;;;12.80;99.90;;;;;;5178259;28;20598;-45
2023/06/01 05:29:28;;;;;;;12.07;7.77;;;12.70;99.90;;;;;;5176356;28;20465;-45
2023/06/01 05:31:59;;;;;;;10.90;8.57;;;12.60;99.90;;;;;;5186694;28;20191;-44
2023/06/01 05:34:30;;;;;;;17.60;7.67;;;12.50;99.90;;;;;;5171552;28;20327;-46
2023/06/01 05:37:01;;;;;;;14.50;7.30;;;12.50;99.90;;;;;;5168449;28;20177;-45
2023/06/01 05:39:32;;;;;;;13.07;7.33;;;12.50;99.90;;;;;;5156472;28;20435;-46
2023/06/01 05:42:02;;;;;;;19.17;7.20;;;12.60;99.90;;;;;;5183480;28;20453;-45
2023/06/01 05:44:33;;;;;;;9.30;6.73;;;12.80;99.90;;;;;;5162130;28;20696;-44
2023/06/01 05:47:04;;;;;;;20.37;7.70;;;13.00;99.90;;;;;;5179018;28;20184;-45
2023/06/01 05:49:35;;;;;;;17.13;6.97;;;13.00;99.90;;;;;;5185494;28;20252;-45
2023/06/01 05:52:06;;;;;;;8.83;6.47;;;13.10;99.90;;;;;;5184339;28;20621;-44
2023/06/01 05:54:36;;;;;;;10.67;6.33;;;13.00;99.90;;;;;;5182683;28;20550;-45
2023/06/01 05:57:07;;;;;;;9.37;6.07;;;13.00;99.90;;;;;;5183005;28;20172;-44
2023/06/01 05:59:38;;;;;;;14.60;7.47;;;12.90;99.90;;;;;;5185217;28;20459;-44
2023/06/01 06:02:08;;;;;;;11.13;5.73;;;13.10;99.90;;;;;;5181776;28;20192;-45
2023/06/01 06:04:40;;;;;;;16.90;6.83;;;13.20;99.90;;;;;;5167847;28;20704;-44
2023/06/01 06:07:11;;;;;;;11.47;5.20;;;13.40;99.90;;;;;;5183938;28;20180;-45
2023/06/01 06:09:41;;;;;;;12.50;5.43;;;13.50;99.90;;;;;;5183664;28;20925;-44
2023/06/01 06:12:12;;;;;;;11.60;4.80;;;13.60;99.90;;;;;;5184911;28;20521;-45
2023/06/01 06:14:43;;;;;;;10.73;4.10;;;13.70;99.90;;;;;;5167291;28;20210;-44
2023/06/01 06:17:13;;;;;;;12.80;5.47;;;13.80;99.90;;;;;;5166869;28;20207;-44
2023/06/01 06:19:44;;;;;;;13.67;5.80;;;13.90;99.90;;;;;;5184728;28;20223;-44
2023/06/01 06:22:15;;;;;;;10.67;4.50;;;14.20;99.90;;;;;;5183788;28;20448;-44
2023/06/01 06:24:47;;;;;;;7.30;5.30;;;14.30;99.90;;;;;;5179899;28;20247;-44
2023/06/01 06:27:17;;;;;;;6.83;5.17;;;14.50;99.90;;;;;;5175826;28;20854;-44
2023/06/01 06:29:48;;;;;;;28.43;6.40;;;14.80;99.90;;;;;;5183447;28;21598;-44
2023/06/01 06:32:20;;;;;;;10.33;5.10;;;14.80;99.90;;;;;;5169421;28;20733;-45
2023/06/01 06:34:50;;;;;;;6.20;3.93;;;14.60;99.90;;;;;;5166655;28;20554;-43
2023/06/01 06:37:21;;;;;;;11.07;5.07;;;14.70;99.90;;;;;;5171824;28;20443;-44
2023/06/01 06:39:51;;;;;;;7.93;4.70;;;14.80;99.90;;;;;;5164677;28;20871;-45
2023/06/01 06:42:24;;;;;;;4.63;4.20;;;14.60;99.90;;;;;;5163385;28;20176;-45
2023/06/01 06:44:56;;;;;;;7.13;3.70;;;14.50;99.90;;;;;;5183649;28;20215;-44
2023/06/01 06:47:27;;;;;;;11.03;5.43;;;14.70;99.90;;;;;;5181677;28;20938;-45
2023/06/01 06:49:58;;;;;;;7.70;4.93;;;14.40;99.90;;;;;;5185131;28;20522;-44
2023/06/01 06:52:29;;;;;;;11.30;4.60;;;14.80;99.90;;;;;;5181708;28;20196;-45
2023/06/01 06:55:00;;;;;;;7.10;4.77;;;15.00;99.90;;;;;;5181724;28;20205;-45
2023/06/01 06:57:30;;;;;;;6.27;4.40;;;15.20;99.90;;;;;;5177895;28;20431;-45
2023/06/01 07:00:03;;;;;;;5.40;4.13;;;15.40;99.90;;;;;;5166711;28;20895;-45
2023/06/01 07:02:35;;;;;;;10.00;4.43;;;15.60;99.90;;;;;;5183022;28;20210;-45
2023/06/01 07:05:06;;;;;;;14.13;4.97;;;16.10;99.90;;;;;;5185150;28;20457;-46
2023/06/01 07:07:37;;;;;;;5.40;4.10;;;17.30;99.90;;;;;;5168714;28;20532;-43
2023/06/01 07:10:08;;;;;;;4.93;4.00;;;19.00;97.50;;;;;;5184879;28;20518;-44
2023/06/01 07:12:39;;;;;;;9.50;3.83;;;21.60;74.50;;;;;;5184120;28;20534;-45
2023/06/01 07:15:10;;;;;;;8.63;3.90;;;22.50;62.30;;;;;;5179275;28;20674;-45
2023/06/01 07:17:41;;;;;;;3.80;3.50;;;21.70;58.80;;;;;;5182405;28;20629;-44
2023/06/01 07:20:11;;;;;;;6.93;3.40;;;20.70;59.70;;;;;;5185219;28;20196;-45
2023/06/01 07:22:42;;;;;;;7.50;3.70;;;20.40;62.30;;;;;;5190502;28;20253;-45
2023/06/01 07:25:13;;;;;;;4.47;4.00;;;20.40;62.00;;;;;;5185964;28;20286;-44
2023/06/01 07:27:44;;;;;;;9.00;4.30;;;20.20;63.00;;;;;;5178994;28;20865;-45
2023/06/01 07:30:14;;;;;;;6.63;4.20;;;19.70;64.20;;;;;;5161356;28;20199;-45
2023/06/01 07:32:45;;;;;;;11.93;3.87;;;19.40;66.60;;;;;;5173402;28;20303;-46
2023/06/01 07:35:16;;;;;;;5.07;3.70;;;18.90;67.20;;;;;;5186241;28;20218;-44
2023/06/01 07:37:46;;;;;;;5.00;3.60;;;18.80;69.10;;;;;;5187958;28;20275;-43
2023/06/01 07:40:17;;;;;;;13.10;6.00;;;18.80;69.60;;;;;;5176054;28;20191;-45
2023/06/01 07:42:47;;;;;;;5.60;3.83;;;19.00;68.50;;;;;;5192561;28;20232;-45
2023/06/01 07:45:18;;;;;;;10.13;4.00;;;18.90;68.50;;;;;;5190372;28;20220;-45
2023/06/01 07:47:50;;;;;;;5.20;3.47;;;20.30;65.00;;;;;;5189873;28;20668;-45
2023/06/01 07:50:20;;;;;;;4.17;3.30;;;20.70;63.80;;;;;;5189921;28;20195;-47
2023/06/01 07:52:52;;;;;;;8.97;4.13;;;20.70;61.80;;;;;;5186515;28;20470;-45
2023/06/01 07:55:22;;;;;;;6.60;5.10;;;21.90;58.90;;;;;;5167385;28;20234;-46
2023/06/01 07:57:53;;;;;;;8.93;3.43;;;22.80;55.20;;;;;;5183600;28;20943;-45
2023/06/01 08:00:23;;;;;;;9.67;4.10;;;23.40;54.80;;;;;;5169041;28;20237;-46
2023/06/01 08:02:54;;;;;;;9.93;3.77;;;24.30;51.20;;;;;;5169035;28;20207;-45
2023/06/01 08:05:25;;;;;;;5.00;3.20;;;25.40;47.60;;;;;;5168464;28;20180;-45
2023/06/01 08:07:56;;;;;;;3.50;3.20;;;25.30;45.80;;;;;;5185638;28;20696;-45
2023/06/01 08:10:27;;;;;;;11.73;4.30;;;25.80;44.60;;;;;;5183142;28;20644;-45
2023/06/01 08:12:57;;;;;;;4.23;3.20;;;26.30;43.80;;;;;;5168871;28;20467;-45
2023/06/01 08:15:28;;;;;;;4.00;3.37;;;27.60;41.50;;;;;;5177703;28;20188;-45
2023/06/01 08:17:59;;;;;;;5.93;3.73;;;29.00;39.40;;;;;;5184667;28;20656;-44
2023/06/01 08:20:30;;;;;;;10.93;3.70;;;29.80;37.50;;;;;;5182659;28;20206;-45
2023/06/01 08:23:01;;;;;;;7.77;4.13;;;30.30;34.80;;;;;;5185014;28;20179;-42
2023/06/01 08:25:32;;;;;;;32.03;3.63;;;30.00;34.80;;;;;;5189644;28;20187;-41
2023/06/01 08:28:03;;;;;;;3.50;2.70;;;29.00;35.90;;;;;;5183588;28;20443;-43
2023/06/01 08:30:33;;;;;;;8.43;3.73;;;28.20;37.20;;;;;;5168426;28;20652;-42
2023/06/01 08:33:04;;;;;;;7.03;3.10;;;28.80;37.10;;;;;;5187131;28;20203;-44
2023/06/01 08:35:35;;;;;;;9.20;3.23;;;29.00;36.50;;;;;;5163900;28;20290;-46
2023/06/01 08:38:06;;;;;;;9.93;3.53;;;29.60;35.30;;;;;;5178814;28;20467;-45
2023/06/01 08:40:36;;;;;;;4.80;3.30;;;29.40;34.30;;;;;;5179117;28;20475;-45
2023/06/01 08:43:20;;;;;;;4.70;3.27;;;28.90;35.70;;;;;;5187778;28;20192;-45
2023/06/01 08:45:51;;;;;;;7.73;2.73;;;28.90;35.50;;;;;;5178838;28;20188;-44
2023/06/01 08:48:23;;;;;;;10.40;2.83;;;29.00;35.30;;;;;;5183710;28;20530;-45
2023/06/01 08:50:56;;;;;;;9.03;3.27;;;28.10;36.10;;;;;;5164841;28;20564;-45
2023/06/01 08:53:28;;;;;;;6.70;4.57;;;25.60;38.80;;;;;;5181233;28;20843;-44
2023/06/01 08:55:59;;;;;;;7.33;3.67;;;22.70;43.60;;;;;;5163981;28;20438;-44
2023/06/01 08:58:30;;;;;;;3.53;3.20;;;21.40;46.90;;;;;;5182158;28;20807;-48
2023/06/01 09:01:01;;;;;;;7.80;3.90;;;20.30;48.30;;;;;;5185306;28;20633;-45
2023/06/01 09:03:31;;;;;;;8.13;4.10;;;19.50;50.40;;;;;;5170537;28;20538;-45
2023/06/01 09:06:03;;;;;;;3.93;3.40;;;18.80;51.90;;;;;;5186694;28;20199;-44
2023/06/01 09:08:34;;;;;;;14.07;4.10;;;18.60;53.00;;;;;;5146422;28;20192;-44
2023/06/01 09:11:05;;;;;;;12.10;3.50;;;18.40;53.80;;;;;;5184879;28;20489;-45
2023/06/01 09:13:37;;;;;;;6.23;3.63;;;18.40;53.90;;;;;;5185966;28;20315;-45
2023/06/01 09:16:09;;;;;;;6.73;3.67;;;18.40;54.10;;;;;;5181802;28;20505;-45
2023/06/01 09:18:53;;;;;;;8.70;3.40;;;18.20;54.70;;;;;;5180323;28;20529;-45
2023/06/01 09:21:24;;;;;;;10.07;3.63;;;18.20;55.40;;;;;;5167955;28;20767;-44
2023/06/01 09:23:55;;;;;;;3.73;3.43;;;18.30;55.80;;;;;;5169771;28;20966;-44
2023/06/01 09:26:27;;;;;;;6.03;4.13;;;18.20;56.00;;;;;;5168326;28;20436;-45
2023/06/01 09:28:59;;;;;;;5.43;3.23;;;18.30;56.70;;;;;;5185403;28;20326;-44
2023/06/01 09:31:39;;;;;;;4.10;3.17;;;18.70;57.00;;;;;;5167055;28;20502;-45
2023/06/01 09:34:15;;;;;;;6.10;4.20;;;19.00;55.80;;;;;;5184232;28;20561;-45
2023/06/01 09:36:54;;;;;;;3.60;3.27;;;18.70;55.60;;;;;;5185075;28;20434;-44
2023/06/01 09:39:25;;;;;;;8.03;3.50;;;18.30;56.70;;;;;;5180939;28;20734;-45
2023/06/01 09:42:01;;;;;;;15.53;3.60;;;18.00;57.70;;;;;;5171511;28;20451;-45
2023/06/01 09:44:36;;;;;;;5.23;4.37;;;18.00;59.00;;;;;;5165470;28;21008;-45
2023/06/01 09:47:10;;;;;;;4.97;3.13;;;18.10;58.80;;;;;;5187923;28;20438;-46
2023/06/01 09:49:45;;;;;;;7.13;3.63;;;18.10;58.70;;;;;;5186920;28;20435;-45
2023/06/01 09:52:17;;;;;;;6.50;3.77;;;17.90;59.20;;;;;;5169687;28;20434;-46
2023/06/01 09:54:50;;;;;;;4.97;4.00;;;17.90;59.20;;;;;;5182314;28;20498;-45
2023/06/01 09:57:24;;;;;;;8.93;3.90;;;17.90;59.80;;;;;;5162833;28;21002;-47
2023/06/01 09:59:55;;;;;;;6.67;3.60;;;18.20;60.40;;;;;;5181587;28;20963;-45
2023/06/01 10:02:26;;;;;;;4.00;3.60;;;18.30;59.20;;;;;;5181294;28;20428;-44
2023/06/01 10:04:58;;;;;;;9.70;4.63;;;18.40;59.20;;;;;;5183045;28;20282;-45
2023/06/01 10:07:33;;;;;;;11.67;4.83;;;18.30;59.30;;;;;;5181325;28;20199;-46
2023/06/01 10:10:04;;;;;;;7.33;4.60;;;18.20;59.20;;;;;;5177741;28;20446;-44
2023/06/01 10:12:35;;;;;;;7.97;5.00;;;18.10;58.90;;;;;;5185467;28;20499;-45
2023/06/01 10:15:07;;;;;;;8.00;4.93;;;18.00;59.50;;;;;;5187467;28;20498;-45
2023/06/01 10:17:42;;;;;;;23.93;8.27;;;18.10;59.90;;;;;;5182249;28;20438;-44
2023/06/01 10:20:14;;;;;;;28.73;13.90;;;18.00;59.90;;;;;;5182080;28;20552;-46
2023/06/01 10:22:46;;;;;;;7.20;5.73;;;18.10;60.50;;;;;;5183372;28;20434;-45
2023/06/01 10:25:20;;;;;;;9.60;6.90;;;18.00;60.30;;;;;;5166110;28;20443;-45
2023/06/01 10:28:07;;;;;;;6.83;6.13;;;18.20;61.10;;;;;;5168818;28;20431;-46
2023/06/01 10:30:38;;;;;;;7.17;5.70;;;18.40;60.60;;;;;;5180953;28;20950;-44
2023/06/01 10:33:09;;;;;;;7.80;6.10;;;18.30;59.50;;;;;;5182357;28;20471;-46
2023/06/01 10:35:42;;;;;;;9.90;5.80;;;18.30;60.40;;;;;;5158802;28;20226;-45
2023/06/01 10:38:13;;;;;;;6.83;5.23;;;18.50;59.80;;;;;;5179253;28;20580;-45
2023/06/01 10:40:44;;;;;;;10.87;6.20;;;18.60;59.50;;;;;;5179587;28;20445;-46
2023/06/01 10:43:37;;;;;;;6.80;5.27;;;18.60;59.10;;;;;;5184848;28;20592;-45
2023/06/01 10:46:30;;;;;;;24.23;11.50;;;18.50;59.80;;;;;;5185585;28;20428;-46
2023/06/01 10:49:02;;;;;;;14.97;7.13;;;18.60;59.90;;;;;;5168203;28;20431;-45
2023/06/01 10:51:32;;;;;;;9.53;6.20;;;18.50;59.30;;;;;;5182634;28;20443;-45
2023/06/01 10:54:29;;;;;;;12.57;7.63;;;18.70;60.00;;;;;;5181748;28;20464;-45
2023/06/01 10:57:30;;;;;;;11.30;6.43;;;18.90;59.10;;;;;;5184680;28;20188;-45
2023/06/01 11:00:26;;;;;;;11.27;7.27;;;19.00;58.60;;;;;;5152096;28;20529;-45
2023/06/01 11:03:02;;;;;;;9.83;6.30;;;18.90;57.70;;;;;;5183857;28;20449;-45
2023/06/01 11:05:50;;;;;;;10.20;6.67;;;18.80;58.60;;;;;;5170225;28;20500;-45
2023/06/01 11:08:31;;;;;;;10.70;7.37;;;18.70;58.40;;;;;;5185730;28;20431;-45
2023/06/01 11:11:06;;;;;;;14.93;8.40;;;18.70;57.50;;;;;;5184687;28;20502;-44
2023/06/01 11:13:39;;;;;;;11.80;9.37;;;18.60;57.20;;;;;;5184731;28;20473;-45
2023/06/01 11:16:10;;;;;;;11.53;7.80;;;18.70;57.50;;;;;;5185916;28;20441;-45
2023/06/01 11:18:43;;;;;;;9.60;7.20;;;18.70;57.80;;;;;;5164746;28;20427;-45
2023/06/01 11:21:21;;;;;;;8.60;6.70;;;18.80;58.30;;;;;;5183948;28;20446;-46
2023/06/01 11:23:56;;;;;;;10.93;6.20;;;18.90;57.70;;;;;;5181020;28;20561;-45
2023/06/01 11:26:39;;;;;;;6.70;5.83;;;18.90;57.40;;;;;;5184996;28;20799;-44
2023/06/01 11:29:20;;;;;;;16.70;8.30;;;18.90;57.40;;;;;;5182718;28;20462;-45
2023/06/01 11:32:03;;;;;;;11.13;7.97;;;19.00;57.20;;;;;;5179942;28;20821;-46
2023/06/01 11:34:38;;;;;;;13.67;7.27;;;19.10;57.80;;;;;;5175691;28;20463;-45
2023/06/01 11:37:14;;;;;;;16.23;10.20;;;19.00;56.60;;;;;;5178270;28;20510;-45
2023/06/01 11:39:46;;;;;;;13.90;8.70;;;19.00;56.80;;;;;;5166639;28;20438;-44
2023/06/01 11:42:19;;;;;;;25.23;14.37;;;19.10;57.30;;;;;;5177908;28;20458;-46
2023/06/01 11:44:59;;;;;;;8.83;6.80;;;19.40;56.80;;;;;;5178501;28;20560;-45
2023/06/01 11:47:30;;;;;;;6.63;5.97;;;19.50;56.60;;;;;;5177700;28;20756;-45
2023/06/01 11:50:01;;;;;;;17.53;5.90;;;19.30;56.00;;;;;;5176213;28;20434;-46
2023/06/01 11:52:32;;;;;;;12.50;6.00;;;19.20;56.70;;;;;;5178642;28;20461;-45
2023/06/01 11:55:04;;;;;;;7.13;5.90;;;19.40;56.60;;;;;;5148522;28;20208;-46
2023/06/01 11:57:34;;;;;;;7.60;5.33;;;19.30;56.60;;;;;;5178427;28;20837;-48
2023/06/01 12:00:12;;;;;;;9.10;6.77;;;19.20;56.60;;;;;;5173373;28;20439;-46
2023/06/01 12:02:43;;;;;;;6.03;5.33;;;19.40;57.10;;;;;;5177024;28;20180;-45
2023/06/01 12:05:14;;;;;;;8.97;5.87;;;19.50;57.70;;;;;;5181957;28;20608;-46
2023/06/01 12:07:53;;;;;;;8.77;5.50;;;19.80;57.10;;;;;;5163519;28;20916;-45
2023/06/01 12:10:24;;;;;;;4.87;4.57;;;19.90;56.20;;;;;;5177140;28;20188;-46
2023/06/01 12:12:55;;;;;;;6.60;5.43;;;20.00;56.10;;;;;;5179746;28;20466;-45
2023/06/01 12:15:26;;;;;;;11.20;5.20;;;20.10;55.60;;;;;;5181729;28;20427;-45
2023/06/01 12:17:57;;;;;;;5.63;5.13;;;20.00;55.40;;;;;;5180366;28;20615;-47
2023/06/01 12:20:43;;;;;;;12.50;5.53;;;20.00;54.80;;;;;;5179608;28;20216;-45
2023/06/01 12:23:15;;;;;;;9.70;6.10;;;20.10;54.60;;;;;;5178221;28;20208;-46
2023/06/01 12:25:50;;;;;;;12.23;6.33;;;20.10;55.10;;;;;;5185236;28;20506;-46
2023/06/01 12:28:23;;;;;;;24.27;11.10;;;20.10;55.60;;;;;;5187430;28;20493;-45
2023/06/01 12:31:12;;;;;;;13.53;7.90;;;20.20;55.30;;;;;;5183304;28;20427;-46
2023/06/01 12:33:48;;;;;;;20.00;13.10;;;20.30;54.40;;;;;;5178554;28;20479;-46
2023/06/01 12:36:32;;;;;;;9.33;6.73;;;20.10;54.00;;;;;;5165096;28;20521;-45
2023/06/01 12:39:04;;;;;;;8.17;6.17;;;20.20;53.80;;;;;;5182167;28;20438;-45
2023/06/01 12:41:35;;;;;;;13.80;7.63;;;20.30;54.20;;;;;;5183729;28;20791;-46
2023/06/01 12:44:06;;;;;;;16.40;6.07;;;20.40;54.70;;;;;;5184059;28;20465;-46
2023/06/01 12:46:36;;;;;;;7.23;5.10;;;20.50;54.90;;;;;;5178028;28;20309;-47
2023/06/01 12:49:17;;;;;;;10.73;6.67;;;20.60;54.70;;;;;;5165869;28;20220;-45
2023/06/01 12:51:47;;;;;;;7.60;5.63;;;20.70;53.80;;;;;;5181846;28;20191;-45
2023/06/01 12:54:18;;;;;;;12.50;6.27;;;20.40;54.20;;;;;;5182946;28;21559;-46
2023/06/01 12:56:49;;;;;;;6.17;5.57;;;20.30;54.50;;;;;;5186207;28;21301;-46
2023/06/01 12:59:21;;;;;;;10.23;5.30;;;20.30;54.50;;;;;;5181602;28;20548;-44
2023/06/01 13:01:51;;;;;;;15.03;9.50;;;20.20;54.80;;;;;;5180358;28;20462;-46
2023/06/01 13:04:22;;;;;;;11.27;7.80;;;20.40;55.40;;;;;;5182059;28;20521;-45
2023/06/01 13:06:53;;;;;;;8.90;5.03;;;20.50;54.70;;;;;;5180076;28;20195;-44
2023/06/01 13:09:24;;;;;;;7.93;4.97;;;20.70;55.10;;;;;;5164565;28;20936;-44
2023/06/01 13:11:54;;;;;;;15.77;6.57;;;20.90;54.40;;;;;;5175248;28;20191;-46